Austin, Pennsylvania
Current Conditions -  °F | °C
As of 5:53 AM on Sunday 21 Dec 2014 (Local Time) from KBFD Reporting Station
Overcast Overcast  
Wind Chill: 23°   Ceiling: 1100
Heat Index: 23°   Visibility: 8mi
Dew Point: 19°   Wind: 3mph
Humidity: 85%   Direction: 260°W
Pressure: 30.21"   Gusts: NA
Location:  41.63°N, 78.09°W
Report Text: KBFD 211053Z AUTO 26003KT 8SM SCT006 OVC011 M05/M07 A3021 RMK AO2 SLP256 T10501072
Loading
Personal Weather Stations






























Interactive Weather Map New forecast layout! Learn more

10-Day Weather Forecast

Advertisements
Track Severe Weather on mobile